Laguna Niguel, California
Current Conditions -  °F | °C
As of 11:53 PM on Tuesday 21 Oct 2014 (Local Time) from KSNA Reporting Station
Clear Clear  
Wind Chill: 67°   Ceiling: Unl
Heat Index: 67°   Visibility: 8mi
Dew Point: 61°   Wind: 5mph
Humidity: 81%   Direction: 100°E
Pressure: 29.88"   Gusts: NA
Location:  33.56°N, 117.7°W
Report Text: KSNA 220653Z AUTO 10004KT 8SM CLR 19/16 A2988 RMK AO2 SLP117 T01940161 TSNO $
Loading
Personal Weather Stations






























Interactive Weather Map New forecast layout! Learn more

10-Day Weather Forecast

Advertisements
Track Severe Weather on mobile